Terminal Aerodrome Forecast
Issued by NWS

Home | Current Version | Previous Version | Text Only | Print | Product List | Glossary On
Versions: 1 2 3 4 5 6 7 8 9 10 11 12
000
FTUS45 KLKN 241720
TAFTPH
TAF
KTPH 241720Z 2418/2518 35006KT P6SM SKC
     FM241900 28012G22KT P6SM SCT200
     FM250000 30020G30KT P6SM BKN150
     FM250900 34010KT P6SM FEW150 SCT200=

USA.gov is the U.S. government's official web portal to all federal, state and local government web resources and services.